Time;durP1;ratioP1;P1;durP2;ratioP2;P2;SDS_P1;SDS_P2;PMS_P1;PMS_P2;Temp;Humidity;BMP_temperature;BMP_pressure;BME280_temperature;BME280_humidity;BME280_pressure;Samples;Min_cycle;Max_cycle;Signal;HPM_P1;HPM_P2
2022/03/19 00:00:39;;;;;;;17.33;10.10;;;13.10;99.90;;;;;;5050985;28;20038;-73
2022/03/19 00:03:05;;;;;;;14.00;9.15;;;13.10;99.90;;;;;;5023489;28;20037;-72
2022/03/19 00:05:31;;;;;;;18.63;9.63;;;13.00;99.90;;;;;;5046465;28;20042;-73
2022/03/19 00:07:56;;;;;;;17.33;9.50;;;13.10;99.90;;;;;;5014639;28;20038;-72
2022/03/19 00:10:22;;;;;;;21.95;9.73;;;13.00;99.90;;;;;;5014078;28;20049;-73
2022/03/19 00:12:49;;;;;;;22.05;9.10;;;13.10;99.90;;;;;;5032644;28;20049;-73
2022/03/19 00:15:16;;;;;;;18.77;9.82;;;13.10;99.90;;;;;;5011375;28;20049;-72
2022/03/19 00:17:42;;;;;;;19.52;9.73;;;13.10;99.90;;;;;;5011977;28;20038;-72
2022/03/19 00:20:09;;;;;;;17.15;9.75;;;13.10;99.90;;;;;;5040759;28;20045;-72
2022/03/19 00:22:36;;;;;;;16.98;9.63;;;13.10;99.90;;;;;;5028657;28;20037;-73
2022/03/19 00:25:03;;;;;;;18.80;9.60;;;13.10;99.90;;;;;;5011884;28;20044;-72
2022/03/19 00:27:29;;;;;;;18.80;10.25;;;13.10;99.90;;;;;;5029763;28;20121;-71
2022/03/19 00:29:56;;;;;;;30.63;10.75;;;13.10;99.90;;;;;;5028140;28;20117;-72
2022/03/19 00:32:22;;;;;;;20.42;9.70;;;13.10;99.90;;;;;;5008150;28;20522;-73
2022/03/19 00:34:47;;;;;;;16.65;9.13;;;13.10;99.90;;;;;;5026803;28;20045;-72
2022/03/19 00:37:13;;;;;;;22.40;9.93;;;13.10;99.90;;;;;;5046767;28;20046;-73
2022/03/19 00:39:39;;;;;;;17.42;9.40;;;13.10;99.90;;;;;;5047003;28;20065;-73
2022/03/19 00:42:05;;;;;;;18.67;10.27;;;13.10;99.90;;;;;;5011169;28;20042;-72
2022/03/19 00:44:31;;;;;;;23.45;9.90;;;13.10;99.90;;;;;;5008010;28;20048;-73
2022/03/19 00:46:56;;;;;;;21.38;9.52;;;13.10;99.90;;;;;;5012809;28;20113;-72
2022/03/19 00:49:22;;;;;;;21.80;9.68;;;13.10;99.90;;;;;;5051381;28;20065;-71
2022/03/19 00:51:48;;;;;;;20.30;9.88;;;13.10;99.90;;;;;;5014371;28;20104;-72
2022/03/19 00:54:15;;;;;;;20.63;10.30;;;13.10;99.90;;;;;;5044968;28;20056;-74
2022/03/19 00:56:42;;;;;;;19.02;9.50;;;13.10;99.90;;;;;;5014075;28;20034;-73
2022/03/19 00:59:08;;;;;;;19.83;9.77;;;13.20;99.90;;;;;;5042238;28;20464;-72
2022/03/19 01:01:35;;;;;;;17.63;10.07;;;13.20;99.90;;;;;;5011539;28;20045;-73
2022/03/19 01:04:01;;;;;;;19.40;10.52;;;13.20;99.90;;;;;;5016956;28;20116;-72
2022/03/19 01:06:27;;;;;;;18.65;10.05;;;13.20;99.90;;;;;;4999684;28;20096;-72
2022/03/19 01:08:53;;;;;;;24.52;9.93;;;13.20;99.90;;;;;;5002595;28;20037;-73
2022/03/19 01:11:23;;;;;;;18.98;9.02;;;13.20;99.90;;;;;;5011967;28;20561;-72
2022/03/19 01:13:50;;;;;;;20.67;10.05;;;13.20;99.90;;;;;;4998456;28;20295;-73
2022/03/19 01:16:18;;;;;;;18.30;10.13;;;13.30;99.90;;;;;;5010896;28;20546;-73
2022/03/19 01:18:45;;;;;;;20.35;9.68;;;13.20;99.90;;;;;;5014763;28;20053;-72
2022/03/19 01:21:11;;;;;;;22.08;9.80;;;13.20;99.90;;;;;;5033086;28;20030;-72
2022/03/19 01:23:36;;;;;;;18.88;9.30;;;13.30;99.90;;;;;;4999764;28;20026;-71
2022/03/19 01:26:02;;;;;;;14.77;9.18;;;13.20;99.90;;;;;;5029222;28;20034;-72
2022/03/19 01:28:28;;;;;;;16.17;9.63;;;13.20;99.90;;;;;;5032976;28;20381;-72
2022/03/19 01:30:54;;;;;;;19.42;9.93;;;13.20;99.90;;;;;;4998980;28;20506;-73
2022/03/19 01:33:19;;;;;;;18.38;9.90;;;13.20;99.90;;;;;;5029714;28;20087;-73
2022/03/19 01:35:45;;;;;;;21.00;9.57;;;13.20;99.90;;;;;;4997102;28;20057;-73
2022/03/19 01:38:11;;;;;;;21.48;10.15;;;13.20;99.90;;;;;;5033414;28;20053;-73
2022/03/19 01:40:37;;;;;;;17.25;9.85;;;13.20;99.90;;;;;;5018156;28;20038;-73
2022/03/19 01:43:03;;;;;;;20.58;9.68;;;13.20;99.90;;;;;;4997160;28;20037;-72
2022/03/19 01:45:29;;;;;;;17.85;9.85;;;13.20;99.90;;;;;;5013036;28;20160;-73
2022/03/19 01:47:56;;;;;;;21.48;9.98;;;13.20;99.90;;;;;;5029686;28;20121;-72
2022/03/19 01:50:25;;;;;;;18.92;10.00;;;13.30;99.90;;;;;;5026809;28;20039;-73
2022/03/19 01:52:53;;;;;;;20.73;8.85;;;13.30;99.90;;;;;;4998328;28;20038;-72
2022/03/19 01:55:21;;;;;;;16.70;9.50;;;13.30;99.90;;;;;;5032814;28;20072;-73
2022/03/19 01:57:48;;;;;;;29.83;9.90;;;13.20;99.90;;;;;;4996059;28;20041;-72
2022/03/19 02:00:18;;;;;;;18.92;9.82;;;13.20;99.90;;;;;;5022130;28;20143;-73
2022/03/19 02:02:45;;;;;;;17.85;9.60;;;13.30;99.90;;;;;;5021745;28;20034;-72
2022/03/19 02:05:14;;;;;;;21.38;10.02;;;13.20;99.90;;;;;;4999264;28;20046;-72
2022/03/19 02:07:44;;;;;;;19.58;9.05;;;13.20;99.90;;;;;;5007278;28;20041;-72
2022/03/19 02:10:11;;;;;;;21.42;9.50;;;13.20;99.90;;;;;;4999252;28;20156;-73
2022/03/19 02:12:38;;;;;;;17.02;9.13;;;13.30;99.90;;;;;;5003790;28;20041;-73
2022/03/19 02:15:05;;;;;;;22.45;9.18;;;13.30;99.90;;;;;;4995822;28;20037;-72
2022/03/19 02:17:31;;;;;;;17.27;9.85;;;13.30;99.90;;;;;;5032129;28;20038;-72
2022/03/19 02:19:57;;;;;;;20.40;10.48;;;13.20;99.90;;;;;;5011071;28;20046;-72
2022/03/19 02:22:27;;;;;;;16.83;8.93;;;13.30;99.90;;;;;;5004361;28;20034;-72
2022/03/19 02:27:39;;;;;;;18.75;9.25;;;13.20;99.90;;;;;;4995148;28;20103;-72
2022/03/19 02:30:07;;;;;;;18.42;10.52;;;13.20;99.90;;;;;;5027420;28;20030;-72
2022/03/19 02:32:34;;;;;;;16.00;9.20;;;13.20;99.90;;;;;;5010269;28;20053;-71
2022/03/19 02:35:00;;;;;;;17.40;10.32;;;13.20;99.90;;;;;;5026693;28;20401;-71
2022/03/19 02:37:25;;;;;;;18.50;9.30;;;13.20;99.90;;;;;;4996801;28;20038;-72
2022/03/19 02:39:51;;;;;;;20.10;9.52;;;13.20;99.90;;;;;;5009666;28;20710;-72
2022/03/19 02:42:19;;;;;;;21.42;10.15;;;13.20;99.90;;;;;;5028247;28;20038;-73
2022/03/19 02:44:45;;;;;;;18.90;10.20;;;13.20;99.90;;;;;;5009472;28;20034;-72
2022/03/19 02:47:12;;;;;;;20.00;9.63;;;13.20;99.90;;;;;;5005698;28;20038;-72
2022/03/19 02:49:38;;;;;;;16.45;9.88;;;13.20;99.90;;;;;;4995152;28;20200;-73
2022/03/19 02:52:04;;;;;;;15.60;9.63;;;13.20;99.90;;;;;;5032023;28;20038;-72
2022/03/19 02:54:31;;;;;;;20.83;8.95;;;13.20;99.90;;;;;;5033837;28;20034;-72
2022/03/19 02:56:58;;;;;;;21.95;9.50;;;13.20;99.90;;;;;;4996611;28;20037;-72
2022/03/19 02:59:32;;;;;;;17.27;9.07;;;13.20;99.90;;;;;;4994433;28;20038;-72
2022/03/19 03:02:01;;;;;;;13.98;9.13;;;13.20;99.90;;;;;;4994532;28;20243;-72
2022/03/19 03:04:28;;;;;;;18.23;9.60;;;13.10;99.90;;;;;;4998147;28;20057;-72
2022/03/19 03:06:56;;;;;;;14.90;8.75;;;13.00;99.90;;;;;;5027715;28;20049;-72
2022/03/19 03:09:24;;;;;;;17.52;9.02;;;12.80;99.90;;;;;;4980616;28;20046;-74
2022/03/19 03:11:51;;;;;;;13.45;8.25;;;12.80;99.90;;;;;;5007873;28;20102;-74
2022/03/19 03:14:20;;;;;;;19.00;8.23;;;12.70;99.90;;;;;;4997673;28;20069;-74
2022/03/19 03:16:52;;;;;;;14.23;9.00;;;12.60;99.90;;;;;;5001658;28;20093;-73
2022/03/19 03:19:18;;;;;;;21.08;10.13;;;12.30;99.90;;;;;;5014047;28;20506;-73
2022/03/19 03:21:45;;;;;;;15.82;10.35;;;12.10;99.90;;;;;;5011419;28;20038;-74
2022/03/19 03:24:12;;;;;;;18.65;9.93;;;11.90;99.90;;;;;;5010634;28;20050;-75
2022/03/19 03:26:39;;;;;;;15.23;9.13;;;11.70;99.90;;;;;;5011569;28;20384;-74
2022/03/19 03:29:06;;;;;;;16.92;9.65;;;11.60;99.90;;;;;;5011300;28;20124;-74
2022/03/19 03:31:33;;;;;;;18.33;9.18;;;11.60;99.90;;;;;;5001665;28;20535;-74
2022/03/19 03:34:00;;;;;;;14.95;9.77;;;11.50;99.90;;;;;;5012925;28;20519;-74
2022/03/19 03:36:26;;;;;;;17.50;9.85;;;11.50;99.90;;;;;;4995415;28;20536;-73
2022/03/19 03:38:51;;;;;;;17.00;9.90;;;11.50;99.90;;;;;;5026896;28;20034;-74
2022/03/19 03:41:17;;;;;;;16.20;9.88;;;11.40;99.90;;;;;;5027388;28;20042;-74
2022/03/19 03:43:45;;;;;;;15.85;9.00;;;11.50;99.90;;;;;;4998408;28;20128;-74
2022/03/19 03:46:13;;;;;;;17.10;8.68;;;11.50;99.90;;;;;;4994407;28;20056;-74
2022/03/19 03:48:39;;;;;;;16.40;8.93;;;11.50;99.90;;;;;;5016889;28;20037;-74
2022/03/19 03:51:06;;;;;;;12.65;7.72;;;11.50;99.90;;;;;;5025388;28;20114;-74
2022/03/19 03:53:34;;;;;;;11.90;7.40;;;11.60;99.90;;;;;;4998579;28;20038;-74
2022/03/19 03:56:00;;;;;;;11.32;6.60;;;11.60;99.90;;;;;;4997001;28;20038;-74
2022/03/19 03:58:26;;;;;;;14.32;6.82;;;11.60;99.90;;;;;;5030923;28;20041;-74
2022/03/19 04:00:52;;;;;;;14.48;6.68;;;11.70;99.90;;;;;;5030165;28;20084;-72
2022/03/19 04:03:20;;;;;;;13.80;6.70;;;11.70;99.90;;;;;;5009775;28;20122;-74
2022/03/19 04:05:45;;;;;;;11.68;6.93;;;11.80;99.90;;;;;;4998902;28;20484;-75
2022/03/19 04:08:11;;;;;;;13.57;6.40;;;11.80;99.90;;;;;;5028740;28;20112;-74
2022/03/19 04:10:37;;;;;;;11.02;6.18;;;11.90;99.90;;;;;;5004743;28;20031;-74
2022/03/19 04:13:03;;;;;;;10.90;6.32;;;11.90;99.90;;;;;;4996548;28;20455;-73
2022/03/19 04:15:29;;;;;;;10.40;5.60;;;11.90;99.90;;;;;;4995569;28;20064;-74
2022/03/19 04:17:54;;;;;;;11.13;5.55;;;12.00;99.90;;;;;;4994611;28;20080;-73
2022/03/19 04:20:22;;;;;;;13.65;5.38;;;12.00;99.90;;;;;;5025362;28;20125;-74
2022/03/19 04:22:48;;;;;;;9.77;4.80;;;12.10;99.90;;;;;;5001127;28;20084;-74
2022/03/19 04:25:16;;;;;;;19.05;6.18;;;12.00;99.90;;;;;;4997383;28;20037;-74
2022/03/19 04:27:43;;;;;;;11.88;5.32;;;12.10;99.90;;;;;;4997825;28;20368;-74
2022/03/19 04:30:12;;;;;;;10.15;5.68;;;11.90;99.90;;;;;;4997237;28;20554;-75
2022/03/19 04:32:41;;;;;;;17.98;6.55;;;11.70;99.90;;;;;;4983688;28;20042;-74
2022/03/19 04:36:29;;;;;;;13.60;6.68;;;11.50;99.90;;;;;;4996570;28;20089;-74
2022/03/19 04:37:56;;;;;;;12.50;6.45;;;11.30;99.90;;;;;;4996177;28;20041;-74
2022/03/19 04:40:22;;;;;;;15.50;6.97;;;11.00;99.90;;;;;;5033016;28;20050;-74
2022/03/19 04:42:48;;;;;;;9.95;6.30;;;10.90;99.90;;;;;;5012169;28;20656;-74
2022/03/19 04:45:14;;;;;;;13.10;6.88;;;10.90;99.90;;;;;;5029660;28;20132;-74
2022/03/19 04:47:40;;;;;;;12.98;7.18;;;10.80;99.90;;;;;;5015783;28;20033;-73
2022/03/19 04:50:06;;;;;;;17.85;6.90;;;10.70;99.90;;;;;;5031528;28;20042;-74
2022/03/19 04:52:34;;;;;;;11.20;5.68;;;10.60;99.90;;;;;;5000518;28;20046;-74
2022/03/19 04:55:00;;;;;;;14.63;6.63;;;10.60;99.90;;;;;;5042501;28;20041;-74
2022/03/19 04:57:30;;;;;;;13.73;5.72;;;10.60;99.90;;;;;;4997108;28;20145;-74
2022/03/19 04:59:57;;;;;;;15.73;5.10;;;10.50;99.90;;;;;;5031265;28;20393;-75
2022/03/19 05:02:24;;;;;;;18.42;5.80;;;10.50;99.90;;;;;;5000779;28;20137;-75
2022/03/19 05:04:53;;;;;;;10.18;5.30;;;10.50;99.90;;;;;;5033760;28;20041;-76
2022/03/19 05:07:19;;;;;;;7.07;4.72;;;10.50;99.90;;;;;;5034572;28;20037;-76
2022/03/19 05:12:41;;;;;;;13.10;5.60;;;10.40;99.90;;;;;;5003384;28;20590;-76
2022/03/19 05:15:10;;;;;;;10.52;6.07;;;10.40;99.90;;;;;;5034703;28;20049;-77
2022/03/19 05:17:37;;;;;;;15.25;6.53;;;10.40;99.90;;;;;;5016071;28;20042;-75
2022/03/19 05:20:03;;;;;;;14.80;6.22;;;10.40;99.90;;;;;;5001242;28;20046;-76
2022/03/19 05:22:30;;;;;;;13.90;6.22;;;10.40;99.90;;;;;;5036652;28;20045;-76
2022/03/19 05:24:59;;;;;;;10.23;6.10;;;10.30;99.90;;;;;;5038256;28;20452;-75
2022/03/19 05:27:25;;;;;;;8.85;5.65;;;10.30;99.90;;;;;;5004752;28;20068;-75
2022/03/19 05:29:52;;;;;;;12.15;5.97;;;10.20;99.90;;;;;;5000507;28;20034;-75
2022/03/19 05:32:19;;;;;;;10.98;6.50;;;10.20;99.90;;;;;;5013506;28;20853;-76
2022/03/19 05:34:45;;;;;;;11.93;6.60;;;10.20;99.90;;;;;;5005045;28;20039;-76
2022/03/19 05:37:11;;;;;;;14.57;7.10;;;10.20;99.90;;;;;;5032236;28;20109;-75
2022/03/19 05:39:37;;;;;;;16.20;7.90;;;10.20;99.90;;;;;;5029912;28;20061;-76
2022/03/19 05:42:05;;;;;;;16.77;7.93;;;10.20;99.90;;;;;;5033709;28;20060;-75
2022/03/19 05:44:31;;;;;;;15.15;8.63;;;10.20;99.90;;;;;;5026989;28;20046;-76
2022/03/19 05:47:00;;;;;;;11.93;8.07;;;10.20;99.90;;;;;;4997884;28;20497;-76
2022/03/19 05:49:30;;;;;;;16.40;9.30;;;10.20;99.90;;;;;;5028982;28;20092;-77
2022/03/19 05:51:56;;;;;;;13.90;7.53;;;10.20;99.90;;;;;;5016856;28;20038;-76
2022/03/19 05:54:23;;;;;;;15.68;8.73;;;10.20;99.90;;;;;;4999769;28;20041;-76
2022/03/19 05:56:49;;;;;;;17.83;8.40;;;10.20;99.90;;;;;;5002501;28;20111;-75
2022/03/19 05:59:15;;;;;;;15.93;7.60;;;10.20;99.90;;;;;;5002257;28;20049;-75
2022/03/19 06:01:42;;;;;;;14.80;7.38;;;10.20;99.90;;;;;;5024064;28;20029;-75
2022/03/19 06:04:08;;;;;;;13.50;7.47;;;10.20;99.90;;;;;;5008178;28;20042;-77
2022/03/19 06:06:34;;;;;;;11.63;7.32;;;10.30;99.90;;;;;;5002116;28;20034;-75
2022/03/19 06:09:00;;;;;;;18.00;9.27;;;10.30;99.90;;;;;;5031389;28;20576;-74
2022/03/19 06:11:26;;;;;;;12.07;6.82;;;10.30;99.90;;;;;;5029097;28;20050;-75
2022/03/19 06:13:53;;;;;;;14.15;7.22;;;10.30;99.90;;;;;;4996441;28;20064;-75
2022/03/19 06:16:19;;;;;;;13.00;6.18;;;10.30;99.90;;;;;;5028594;28;20034;-76
2022/03/19 06:18:50;;;;;;;10.15;6.15;;;10.40;99.90;;;;;;5002659;28;20072;-75
2022/03/19 06:21:18;;;;;;;12.80;6.82;;;10.30;99.90;;;;;;4995799;28;20039;-75
2022/03/19 06:23:47;;;;;;;13.98;6.45;;;10.40;99.90;;;;;;4998482;28;20502;-75
2022/03/19 06:26:14;;;;;;;11.15;6.88;;;10.40;99.90;;;;;;4999554;28;20042;-75
2022/03/19 06:28:40;;;;;;;10.23;6.25;;;10.40;99.90;;;;;;5032648;28;20092;-76
2022/03/19 06:31:07;;;;;;;12.90;7.32;;;10.40;99.90;;;;;;4996799;28;20092;-76
2022/03/19 06:33:33;;;;;;;13.30;7.78;;;10.30;99.90;;;;;;5002295;28;20038;-75
2022/03/19 06:38:44;;;;;;;12.02;8.10;;;10.30;99.90;;;;;;4988626;28;20134;-75
2022/03/19 06:41:11;;;;;;;14.20;8.38;;;10.30;99.90;;;;;;4988060;28;20096;-75
2022/03/19 06:43:37;;;;;;;14.32;8.18;;;10.30;99.90;;;;;;5029677;28;20037;-77
2022/03/19 06:46:03;;;;;;;14.85;8.07;;;10.40;99.90;;;;;;5030171;28;20038;-75
2022/03/19 06:48:29;;;;;;;12.38;8.00;;;10.40;99.90;;;;;;5002311;28;20088;-75
2022/03/19 06:50:55;;;;;;;17.98;9.13;;;10.40;99.90;;;;;;4998083;28;20037;-76
2022/03/19 06:53:22;;;;;;;17.50;9.93;;;10.30;99.90;;;;;;5027700;28;20042;-74
2022/03/19 06:55:49;;;;;;;19.08;10.07;;;10.30;99.90;;;;;;5017033;28;20042;-76
2022/03/19 06:58:16;;;;;;;17.75;10.85;;;10.30;99.90;;;;;;5000330;28;20050;-76
2022/03/19 07:00:41;;;;;;;22.55;11.10;;;10.40;99.90;;;;;;4996287;28;20048;-75
2022/03/19 07:03:08;;;;;;;20.35;11.00;;;10.40;99.90;;;;;;5029746;28;20038;-76
2022/03/19 07:05:34;;;;;;;22.20;11.00;;;10.30;99.90;;;;;;4996980;28;20543;-75
2022/03/19 07:08:01;;;;;;;25.08;12.77;;;10.40;99.90;;;;;;5022336;28;20826;-75
2022/03/19 07:10:28;;;;;;;22.23;11.55;;;10.40;99.90;;;;;;5012838;28;20140;-75
2022/03/19 07:12:56;;;;;;;20.00;12.38;;;10.40;99.90;;;;;;5000488;28;20106;-76
2022/03/19 07:15:30;;;;;;;24.85;12.95;;;10.40;99.90;;;;;;5014474;28;20452;-76
2022/03/19 07:18:02;;;;;;;23.80;12.35;;;10.40;99.90;;;;;;4997468;28;20125;-75
2022/03/19 07:20:30;;;;;;;20.98;12.68;;;10.50;99.90;;;;;;5013153;28;20046;-76
2022/03/19 07:22:58;;;;;;;20.88;12.07;;;10.50;99.90;;;;;;5000850;28;20488;-75
2022/03/19 07:25:29;;;;;;;24.52;13.55;;;10.60;99.90;;;;;;5012151;28;20033;-76
2022/03/19 07:27:58;;;;;;;23.52;12.48;;;10.50;99.90;;;;;;5032616;28;20056;-77
2022/03/19 07:30:24;;;;;;;26.17;13.32;;;10.50;99.90;;;;;;5005278;28;20071;-76
2022/03/19 07:32:51;;;;;;;26.92;13.23;;;10.60;99.90;;;;;;4996128;28;20125;-75
2022/03/19 07:35:18;;;;;;;23.15;12.90;;;10.50;99.90;;;;;;5000179;28;20042;-77
2022/03/19 07:37:45;;;;;;;26.13;13.90;;;10.50;99.90;;;;;;5017201;28;20097;-76
2022/03/19 07:40:14;;;;;;;25.48;14.63;;;10.50;99.90;;;;;;5013259;28;20048;-76
2022/03/19 07:42:40;;;;;;;26.70;13.40;;;10.50;99.90;;;;;;5012543;28;20038;-76
2022/03/19 07:45:07;;;;;;;24.50;13.07;;;10.40;99.90;;;;;;5000701;28;20033;-76
2022/03/19 07:47:34;;;;;;;20.70;13.73;;;10.40;99.90;;;;;;4999382;28;20045;-76
2022/03/19 07:50:02;;;;;;;28.45;14.25;;;10.50;99.90;;;;;;5028367;28;20504;-75
2022/03/19 07:52:27;;;;;;;22.48;13.02;;;10.50;99.90;;;;;;5012517;28;20104;-77
2022/03/19 07:54:54;;;;;;;27.98;13.68;;;10.50;99.90;;;;;;5001425;28;20046;-77
2022/03/19 07:57:22;;;;;;;21.27;12.52;;;10.50;99.90;;;;;;4998469;28;20053;-76
2022/03/19 07:59:48;;;;;;;26.35;13.93;;;10.50;99.90;;;;;;5031322;28;20046;-76
2022/03/19 08:02:14;;;;;;;24.20;12.85;;;10.40;99.90;;;;;;5000410;28;20644;-76
2022/03/19 08:04:41;;;;;;;22.33;13.45;;;10.50;99.90;;;;;;4999059;28;20035;-75
2022/03/19 08:07:07;;;;;;;24.98;12.90;;;10.50;99.90;;;;;;5013266;28;20083;-77
2022/03/19 08:09:33;;;;;;;23.08;11.93;;;10.50;99.90;;;;;;5006565;28;20113;-78
2022/03/19 08:12:00;;;;;;;21.80;12.40;;;10.60;99.90;;;;;;5009158;28;20121;-76
2022/03/19 08:14:29;;;;;;;21.00;12.25;;;10.60;99.90;;;;;;5002320;28;20083;-76
2022/03/19 08:16:55;;;;;;;26.67;11.85;;;10.70;99.90;;;;;;5010168;28;20046;-76
2022/03/19 08:19:25;;;;;;;23.50;12.52;;;10.70;99.90;;;;;;5013633;28;20042;-77
2022/03/19 08:21:52;;;;;;;22.13;12.70;;;10.70;99.90;;;;;;5016993;28;20644;-76
2022/03/19 08:24:19;;;;;;;18.98;12.32;;;10.70;99.90;;;;;;5017933;28;20038;-77
2022/03/19 08:26:46;;;;;;;20.70;12.02;;;10.70;99.90;;;;;;5016255;28;20157;-77
2022/03/19 08:29:13;;;;;;;19.52;11.93;;;10.70;99.90;;;;;;5004877;28;20034;-76
2022/03/19 08:31:39;;;;;;;24.65;12.55;;;10.70;99.90;;;;;;5018421;28;20048;-76
2022/03/19 08:34:05;;;;;;;19.40;12.10;;;10.70;99.90;;;;;;5007566;28;20037;-77
2022/03/19 08:36:31;;;;;;;22.05;12.38;;;10.70;99.90;;;;;;5011083;28;20034;-75
2022/03/19 08:41:41;;;;;;;26.25;13.18;;;10.80;99.90;;;;;;5004411;28;20039;-77
2022/03/19 08:44:07;;;;;;;19.85;11.40;;;10.80;99.90;;;;;;5009577;28;20041;-76
2022/03/19 08:46:33;;;;;;;23.67;12.98;;;10.90;99.90;;;;;;5016894;28;20045;-77
2022/03/19 08:48:58;;;;;;;23.10;13.27;;;10.90;99.90;;;;;;5004298;28;20094;-76
2022/03/19 08:51:39;;;;;;;19.25;12.18;;;11.00;99.90;;;;;;5016698;28;20188;-77
2022/03/19 08:54:08;;;;;;;24.50;12.80;;;11.00;99.90;;;;;;5019011;28;20487;-77
2022/03/19 08:56:34;;;;;;;18.67;11.45;;;11.00;99.90;;;;;;5017552;28;20353;-77
2022/03/19 08:59:01;;;;;;;23.30;12.85;;;11.00;99.90;;;;;;5016640;28;20041;-77
2022/03/19 09:01:27;;;;;;;18.08;12.18;;;11.00;99.90;;;;;;5013756;28;20535;-77
2022/03/19 09:03:54;;;;;;;20.88;11.50;;;11.00;99.90;;;;;;5026553;28;20037;-77
2022/03/19 09:06:21;;;;;;;20.23;11.52;;;11.10;99.90;;;;;;5003223;28;20041;-77
2022/03/19 09:08:51;;;;;;;23.95;12.73;;;11.10;99.90;;;;;;5006253;28;20109;-77
2022/03/19 09:11:18;;;;;;;20.95;11.40;;;11.10;99.90;;;;;;5036870;28;20396;-77
2022/03/19 09:13:46;;;;;;;20.55;11.85;;;11.20;99.90;;;;;;5007181;28;20054;-76
2022/03/19 09:16:12;;;;;;;18.35;11.25;;;11.20;99.90;;;;;;5007275;28;20030;-76
2022/03/19 09:18:37;;;;;;;17.80;11.75;;;11.20;99.90;;;;;;5016163;28;20030;-76
2022/03/19 09:21:04;;;;;;;19.75;11.65;;;11.20;99.90;;;;;;5002247;28;20064;-76
2022/03/19 09:23:30;;;;;;;21.88;11.75;;;11.30;99.90;;;;;;5020230;28;20041;-77
2022/03/19 09:25:55;;;;;;;23.95;12.00;;;11.40;99.90;;;;;;5014344;28;20038;-77
2022/03/19 09:28:21;;;;;;;19.08;12.55;;;11.50;99.90;;;;;;5003267;28;20591;-77
2022/03/19 09:30:47;;;;;;;22.60;13.10;;;11.50;99.90;;;;;;5020211;28;20119;-76
2022/03/19 09:33:14;;;;;;;23.67;13.52;;;11.70;99.90;;;;;;5016325;28;20088;-78
2022/03/19 09:35:41;;;;;;;18.83;12.43;;;11.70;99.90;;;;;;5012699;28;20038;-75
2022/03/19 09:38:07;;;;;;;20.48;11.82;;;11.80;99.90;;;;;;5036489;28;20045;-77
2022/03/19 09:40:32;;;;;;;19.30;12.23;;;11.90;99.90;;;;;;4999993;28;20061;-76
2022/03/19 09:42:59;;;;;;;21.85;12.57;;;12.00;99.90;;;;;;5005241;28;20139;-77
2022/03/19 09:45:26;;;;;;;21.33;12.25;;;12.10;99.90;;;;;;5021713;28;20052;-74
2022/03/19 09:47:54;;;;;;;19.20;11.73;;;12.30;99.90;;;;;;5006213;28;20065;-75
2022/03/19 09:50:21;;;;;;;23.10;12.55;;;12.30;99.90;;;;;;5020788;28;20117;-76
2022/03/19 09:52:51;;;;;;;19.88;12.23;;;12.40;99.90;;;;;;5015906;28;20057;-76
2022/03/19 09:55:18;;;;;;;23.48;12.32;;;12.60;99.90;;;;;;5034166;28;20127;-78
2022/03/19 09:57:45;;;;;;;22.30;11.98;;;12.80;99.90;;;;;;4998270;28;20232;-76
2022/03/19 10:00:13;;;;;;;20.15;11.88;;;12.90;99.90;;;;;;5018400;28;20050;-77
2022/03/19 10:02:59;;;;;;;18.45;11.45;;;12.90;99.90;;;;;;5017493;28;20046;-76
2022/03/19 10:11:00;;;;;;;21.73;11.90;;;13.10;99.90;;;;;;4998955;28;20515;-78
2022/03/19 10:13:26;;;;;;;19.02;10.43;;;13.10;99.90;;;;;;5001456;28;20046;-77
2022/03/19 10:15:53;;;;;;;17.35;10.80;;;13.10;99.90;;;;;;5019136;28;20042;-76
2022/03/19 10:18:25;;;;;;;21.70;11.32;;;13.20;99.90;;;;;;5019250;28;20046;-76
2022/03/19 10:20:51;;;;;;;20.67;10.80;;;13.10;99.90;;;;;;5034566;28;20488;-75
2022/03/19 10:23:30;;;;;;;17.73;10.18;;;13.20;99.90;;;;;;5016972;28;20064;-75
2022/03/19 10:25:55;;;;;;;18.50;10.30;;;13.30;99.90;;;;;;5017439;28;20033;-75
2022/03/19 10:28:29;;;;;;;15.45;10.07;;;13.40;99.90;;;;;;5014249;28;20456;-78
2022/03/19 10:30:55;;;;;;;16.10;10.35;;;13.60;99.90;;;;;;5005678;28;20041;-77
2022/03/19 10:33:27;;;;;;;13.10;9.55;;;13.70;99.90;;;;;;5000845;28;20441;-76
2022/03/19 10:36:08;;;;;;;18.13;10.07;;;14.00;99.90;;;;;;5015196;28;20044;-77
2022/03/19 10:38:46;;;;;;;21.63;10.50;;;14.10;99.90;;;;;;5004427;28;20068;-77
2022/03/19 10:41:17;;;;;;;19.42;10.30;;;14.50;99.90;;;;;;5007175;28;20042;-76
2022/03/19 10:43:47;;;;;;;17.58;9.48;;;14.80;99.90;;;;;;5012299;28;20045;-76
2022/03/19 10:46:18;;;;;;;17.73;9.35;;;15.00;99.90;;;;;;5029082;28;20096;-77
2022/03/19 10:48:49;;;;;;;19.73;9.57;;;15.10;99.90;;;;;;5035754;28;20507;-77
2022/03/19 10:51:17;;;;;;;20.45;10.07;;;15.10;99.90;;;;;;5033144;28;20056;-77
2022/03/19 10:53:44;;;;;;;21.85;9.60;;;15.30;99.90;;;;;;5010023;28;20083;-77
2022/03/19 10:56:11;;;;;;;20.30;9.30;;;15.20;99.90;;;;;;5002638;28;20112;-77
2022/03/19 10:58:37;;;;;;;21.15;10.63;;;14.90;99.90;;;;;;5015950;28;20026;-76
2022/03/19 11:01:03;;;;;;;19.20;10.18;;;14.60;99.90;;;;;;5014779;28;20034;-76
2022/03/19 11:03:31;;;;;;;20.58;10.65;;;14.50;99.90;;;;;;5012808;28;20064;-77
2022/03/19 11:06:06;;;;;;;16.88;9.40;;;14.30;99.90;;;;;;5003941;28;20037;-75
2022/03/19 11:08:38;;;;;;;18.75;10.13;;;14.20;99.90;;;;;;5031854;28;20117;-76
2022/03/19 11:11:39;;;;;;;19.88;9.55;;;14.00;99.90;;;;;;5000017;28;20023;-76
2022/03/19 11:14:07;;;;;;;21.10;9.70;;;13.90;99.90;;;;;;4997048;28;20062;-77
2022/03/19 11:16:36;;;;;;;21.15;9.98;;;13.90;99.90;;;;;;5026302;28;20049;-76
2022/03/19 11:19:03;;;;;;;24.73;10.23;;;13.80;99.90;;;;;;5030895;28;20052;-76
2022/03/19 11:21:32;;;;;;;15.15;9.85;;;13.70;99.90;;;;;;5002240;28;20045;-76
2022/03/19 11:24:19;;;;;;;19.17;9.88;;;13.70;99.90;;;;;;5014879;28;20472;-76
2022/03/19 11:26:46;;;;;;;19.52;10.50;;;13.70;99.90;;;;;;5019896;28;20030;-77
2022/03/19 11:29:12;;;;;;;24.75;11.32;;;13.60;99.90;;;;;;5008909;28;20046;-76
2022/03/19 11:31:38;;;;;;;21.45;11.15;;;13.60;99.90;;;;;;5000435;28;20042;-76
2022/03/19 11:34:16;;;;;;;18.40;10.68;;;13.60;99.90;;;;;;5014094;28;20461;-76
2022/03/19 11:36:59;;;;;;;22.00;11.15;;;13.60;99.90;;;;;;5028198;28;20943;-76
2022/03/19 11:39:26;;;;;;;24.00;12.25;;;13.50;99.90;;;;;;5000818;28;20038;-76
2022/03/19 11:41:52;;;;;;;22.70;12.38;;;13.50;99.90;;;;;;4996810;28;20477;-76
2022/03/19 11:44:20;;;;;;;21.50;11.25;;;13.50;99.90;;;;;;4995411;28;20044;-77
2022/03/19 11:47:01;;;;;;;24.90;12.32;;;13.70;99.90;;;;;;5016121;28;20380;-76
2022/03/19 11:49:52;;;;;;;24.08;11.45;;;13.70;99.90;;;;;;4993535;28;20084;-76
2022/03/19 11:52:24;;;;;;;24.80;12.73;;;13.70;99.90;;;;;;4997722;28;20038;-77
2022/03/19 11:55:05;;;;;;;22.50;11.85;;;13.70;99.90;;;;;;4999034;28;20646;-76
2022/03/19 11:57:46;;;;;;;23.88;12.25;;;13.70;99.90;;;;;;5004302;28;20125;-77
2022/03/19 12:00:15;;;;;;;24.10;12.77;;;13.70;99.90;;;;;;5018076;28;20041;-76
2022/03/19 12:03:24;;;;;;;29.00;13.13;;;13.80;99.90;;;;;;5017002;28;20057;-76
2022/03/19 12:05:51;;;;;;;29.42;13.15;;;13.80;99.90;;;;;;4983364;28;20057;-76
2022/03/19 12:08:22;;;;;;;31.13;13.75;;;13.70;99.90;;;;;;4985539;28;20038;-76
2022/03/19 12:10:55;;;;;;;23.48;12.10;;;13.70;99.90;;;;;;4990845;28;20038;-76
2022/03/19 12:13:27;;;;;;;23.65;11.82;;;13.70;99.90;;;;;;5013608;28;20051;-76
2022/03/19 12:16:02;;;;;;;24.75;12.02;;;13.70;99.90;;;;;;5017368;28;20042;-78
2022/03/19 12:18:43;;;;;;;22.73;11.48;;;13.60;99.90;;;;;;4991485;28;20369;-76
2022/03/19 12:21:09;;;;;;;21.20;12.02;;;13.60;99.90;;;;;;5012492;28;20057;-75
2022/03/19 12:23:42;;;;;;;23.02;11.45;;;13.60;99.90;;;;;;5014141;28;20488;-76
2022/03/19 12:26:10;;;;;;;20.98;10.13;;;13.60;99.90;;;;;;4999137;28;20038;-76
2022/03/19 12:28:36;;;;;;;20.88;10.27;;;13.60;99.90;;;;;;5016012;28;20038;-76
2022/03/19 12:31:04;;;;;;;27.00;11.73;;;13.60;99.90;;;;;;5004471;28;20038;-76
2022/03/19 12:33:31;;;;;;;21.35;11.05;;;13.60;99.90;;;;;;4997940;28;20052;-76
2022/03/19 12:35:58;;;;;;;24.13;11.02;;;13.60;99.90;;;;;;5032641;28;20042;-75
2022/03/19 12:38:32;;;;;;;21.23;11.68;;;13.60;99.90;;;;;;4992461;28;20048;-76
2022/03/19 12:43:43;;;;;;;18.67;10.90;;;13.60;99.90;;;;;;4995678;28;20523;-76
2022/03/19 12:46:09;;;;;;;18.63;10.20;;;13.60;99.90;;;;;;5013600;28;20046;-75
2022/03/19 12:48:39;;;;;;;22.40;10.73;;;13.60;99.90;;;;;;5000843;28;20038;-76
2022/03/19 12:51:05;;;;;;;18.10;10.73;;;13.60;99.90;;;;;;5000252;28;20459;-77
2022/03/19 12:53:40;;;;;;;16.23;9.43;;;13.60;99.90;;;;;;5017158;28;20069;-77
2022/03/19 12:56:20;;;;;;;20.42;9.98;;;13.60;99.90;;;;;;5000754;28;20176;-76